Time;durP1;ratioP1;P1;durP2;ratioP2;P2;SDS_P1;SDS_P2;PMS_P1;PMS_P2;Temp;Humidity;BMP_temperature;BMP_pressure;BME280_temperature;BME280_humidity;BME280_pressure;Samples;Min_cycle;Max_cycle;Signal;HPM_P1;HPM_P2
2021/11/21 00:01:26;;;;;;;27.07;17.53;;;9.30;99.90;;;;;;5028257;28;20444;-69
2021/11/21 00:03:51;;;;;;;30.83;19.37;;;9.30;99.90;;;;;;5032096;28;20474;-69
2021/11/21 00:06:18;;;;;;;23.10;16.63;;;9.30;99.90;;;;;;5029765;28;20618;-69
2021/11/21 00:08:44;;;;;;;28.23;18.77;;;9.30;99.90;;;;;;5031059;28;20181;-69
2021/11/21 00:11:10;;;;;;;28.00;20.10;;;9.30;99.90;;;;;;5024650;28;20455;-68
2021/11/21 00:13:36;;;;;;;28.60;19.87;;;9.30;99.90;;;;;;5030114;28;20420;-69
2021/11/21 00:16:01;;;;;;;26.37;18.67;;;9.30;99.90;;;;;;5030364;28;20276;-68
2021/11/21 00:18:27;;;;;;;30.10;21.07;;;9.30;99.90;;;;;;5030710;28;20687;-69
2021/11/21 00:20:53;;;;;;;29.93;21.23;;;9.30;99.90;;;;;;5029887;28;20190;-68
2021/11/21 00:23:22;;;;;;;31.60;20.33;;;9.20;99.90;;;;;;5029721;28;20775;-69
2021/11/21 00:25:48;;;;;;;28.47;20.17;;;9.20;99.90;;;;;;5030133;28;20284;-70
2021/11/21 00:28:14;;;;;;;28.53;20.17;;;9.20;99.90;;;;;;5032041;28;20444;-69
2021/11/21 00:30:40;;;;;;;32.60;21.80;;;9.20;99.90;;;;;;5032347;28;20842;-69
2021/11/21 00:33:06;;;;;;;29.00;21.70;;;9.20;99.90;;;;;;5030798;28;20190;-69
2021/11/21 00:35:32;;;;;;;28.87;21.20;;;9.10;99.90;;;;;;5033064;28;20232;-69
2021/11/21 00:37:58;;;;;;;30.00;21.00;;;9.10;99.90;;;;;;5033891;28;20413;-69
2021/11/21 00:40:24;;;;;;;33.50;21.47;;;9.20;99.90;;;;;;5034129;28;20432;-70
2021/11/21 00:42:51;;;;;;;30.13;21.57;;;9.20;99.90;;;;;;5033036;28;20524;-69
2021/11/21 00:45:16;;;;;;;31.70;21.50;;;9.20;99.90;;;;;;5029549;28;20526;-69
2021/11/21 00:47:42;;;;;;;31.30;20.70;;;9.20;99.90;;;;;;5032697;28;20770;-69
2021/11/21 00:50:09;;;;;;;33.80;21.80;;;9.20;99.90;;;;;;5033767;28;20190;-69
2021/11/21 00:52:37;;;;;;;31.20;21.60;;;9.30;99.90;;;;;;5033036;28;20170;-69
2021/11/21 00:55:13;;;;;;;31.03;23.03;;;9.30;99.90;;;;;;5013973;28;20429;-69
2021/11/21 00:57:40;;;;;;;32.97;22.43;;;9.10;99.90;;;;;;4996666;28;20425;-69
2021/11/21 01:00:10;;;;;;;32.13;22.20;;;9.10;99.90;;;;;;5014063;28;20410;-69
2021/11/21 01:02:39;;;;;;;30.80;21.20;;;9.10;99.90;;;;;;5013497;28;20488;-69
2021/11/21 01:05:09;;;;;;;36.53;22.83;;;9.10;99.90;;;;;;4991938;28;20530;-68
2021/11/21 01:07:38;;;;;;;32.10;22.33;;;9.20;99.90;;;;;;5012821;28;20420;-68
2021/11/21 01:10:10;;;;;;;34.73;21.47;;;9.20;99.90;;;;;;5013469;28;20418;-69
2021/11/21 01:12:36;;;;;;;29.87;21.43;;;9.10;99.90;;;;;;5013183;28;20493;-68
2021/11/21 01:15:03;;;;;;;30.80;21.90;;;9.10;99.90;;;;;;5023452;28;20873;-69
2021/11/21 01:17:28;;;;;;;28.10;19.93;;;9.00;99.90;;;;;;5033101;28;20206;-69
2021/11/21 01:19:59;;;;;;;28.00;20.00;;;9.10;99.90;;;;;;5016529;28;20460;-69
2021/11/21 01:22:30;;;;;;;27.50;20.60;;;9.10;99.90;;;;;;5033675;28;20189;-69
2021/11/21 01:24:56;;;;;;;29.80;21.50;;;9.20;99.90;;;;;;5029715;28;20462;-69
2021/11/21 01:27:22;;;;;;;27.93;20.37;;;9.20;99.90;;;;;;5013215;28;20429;-68
2021/11/21 01:29:48;;;;;;;33.20;20.47;;;9.20;99.90;;;;;;5013679;28;20409;-69
2021/11/21 01:32:14;;;;;;;27.53;22.57;;;9.20;99.90;;;;;;5012164;28;20510;-70
2021/11/21 01:34:39;;;;;;;32.70;22.17;;;9.10;99.90;;;;;;5013897;28;20213;-70
2021/11/21 01:37:05;;;;;;;26.80;19.20;;;9.20;99.90;;;;;;5013427;28;20646;-70
2021/11/21 01:39:31;;;;;;;27.67;19.10;;;9.30;99.90;;;;;;5012597;28;20238;-70
2021/11/21 01:41:56;;;;;;;26.30;18.17;;;9.30;99.90;;;;;;5012474;28;20219;-69
2021/11/21 01:44:22;;;;;;;26.63;18.80;;;9.20;99.90;;;;;;5012638;28;20240;-69
2021/11/21 01:46:51;;;;;;;24.57;17.50;;;9.10;99.90;;;;;;5013431;28;20177;-69
2021/11/21 01:49:16;;;;;;;23.83;16.43;;;9.10;99.90;;;;;;5012747;28;20190;-70
2021/11/21 01:51:42;;;;;;;22.33;16.03;;;9.20;99.90;;;;;;5012342;28;20411;-70
2021/11/21 01:54:08;;;;;;;26.07;18.33;;;9.10;99.90;;;;;;5012934;28;20204;-69
2021/11/21 01:56:34;;;;;;;21.70;16.43;;;9.20;99.90;;;;;;5014491;28;20496;-70
2021/11/21 01:59:00;;;;;;;21.50;16.57;;;9.30;99.90;;;;;;5013720;28;20835;-70
2021/11/21 02:01:26;;;;;;;25.50;17.33;;;9.30;99.90;;;;;;5012982;28;20420;-70
2021/11/21 02:03:52;;;;;;;25.20;16.97;;;9.20;99.90;;;;;;5013030;28;20469;-70
2021/11/21 02:06:17;;;;;;;26.23;18.43;;;9.10;99.90;;;;;;5012034;28;20251;-70
2021/11/21 02:08:43;;;;;;;26.93;18.83;;;9.10;99.90;;;;;;5014679;28;20180;-69
2021/11/21 02:11:08;;;;;;;27.20;17.87;;;9.10;99.90;;;;;;5012100;28;20179;-69
2021/11/21 02:13:34;;;;;;;26.90;19.10;;;8.90;99.90;;;;;;5012378;28;20212;-70
2021/11/21 02:16:00;;;;;;;26.07;17.47;;;8.90;99.90;;;;;;5012077;28;20229;-69
2021/11/21 02:18:26;;;;;;;28.77;19.33;;;8.90;99.90;;;;;;5023340;28;20181;-69
2021/11/21 02:20:55;;;;;;;29.20;20.47;;;8.90;99.90;;;;;;5032093;28;20184;-70
2021/11/21 02:23:23;;;;;;;25.60;18.53;;;9.00;99.90;;;;;;5032162;28;20218;-70
2021/11/21 02:25:49;;;;;;;28.37;18.80;;;9.00;99.90;;;;;;5031834;28;20833;-70
2021/11/21 02:28:15;;;;;;;27.37;19.03;;;9.00;99.90;;;;;;5032370;28;20412;-70
2021/11/21 02:30:41;;;;;;;30.80;21.07;;;9.00;99.90;;;;;;5016975;28;20902;-69
2021/11/21 02:33:13;;;;;;;30.67;20.77;;;9.00;99.90;;;;;;5016202;28;20411;-69
2021/11/21 02:35:41;;;;;;;32.07;19.27;;;9.00;99.90;;;;;;5015842;28;20501;-70
2021/11/21 02:38:10;;;;;;;22.40;16.20;;;9.10;99.90;;;;;;5017115;28;20952;-70
2021/11/21 02:40:36;;;;;;;26.37;17.07;;;9.10;99.90;;;;;;5018089;28;20919;-70
2021/11/21 02:43:01;;;;;;;27.07;18.30;;;9.10;99.90;;;;;;5035211;28;20423;-69
2021/11/21 02:45:27;;;;;;;24.07;16.23;;;9.00;99.90;;;;;;5035232;28;20470;-69
2021/11/21 02:47:52;;;;;;;29.00;18.43;;;9.00;99.90;;;;;;5035558;28;20637;-70
2021/11/21 02:50:23;;;;;;;23.23;16.20;;;9.00;99.90;;;;;;5035685;28;20174;-70
2021/11/21 02:52:50;;;;;;;23.10;14.50;;;9.00;99.90;;;;;;5034129;28;20217;-69
2021/11/21 02:55:17;;;;;;;23.10;14.60;;;8.90;99.90;;;;;;5036012;28;20437;-70
2021/11/21 02:57:43;;;;;;;20.47;13.93;;;8.80;99.90;;;;;;5036013;28;20407;-70
2021/11/21 03:00:12;;;;;;;20.37;13.60;;;8.80;99.90;;;;;;5018007;28;20805;-70
2021/11/21 03:02:40;;;;;;;21.13;14.47;;;8.80;99.90;;;;;;5035479;28;20184;-69
2021/11/21 03:05:06;;;;;;;19.60;13.53;;;9.00;99.90;;;;;;5035363;28;20490;-70
2021/11/21 03:07:31;;;;;;;18.33;13.80;;;9.00;99.90;;;;;;5035240;28;20417;-69
2021/11/21 03:09:57;;;;;;;17.17;12.10;;;9.00;99.90;;;;;;5035232;28;20171;-70
2021/11/21 03:12:24;;;;;;;14.30;12.13;;;9.00;99.90;;;;;;5036688;28;20181;-70
2021/11/21 03:14:51;;;;;;;14.67;11.17;;;9.00;99.90;;;;;;5036017;28;20729;-70
2021/11/21 03:17:17;;;;;;;17.70;11.97;;;8.90;99.90;;;;;;5035386;28;21191;-70
2021/11/21 03:19:43;;;;;;;16.70;11.50;;;8.90;99.90;;;;;;5036340;28;20420;-70
2021/11/21 03:22:09;;;;;;;18.77;13.53;;;9.00;99.90;;;;;;5035400;28;20511;-70
2021/11/21 03:24:35;;;;;;;18.00;13.13;;;8.90;99.90;;;;;;5034907;28;20255;-69
2021/11/21 03:27:00;;;;;;;17.43;13.27;;;8.90;99.90;;;;;;5035454;28;20459;-69
2021/11/21 03:29:27;;;;;;;21.80;14.57;;;8.90;99.90;;;;;;5035820;28;20639;-69
2021/11/21 03:31:53;;;;;;;19.87;13.90;;;8.70;99.90;;;;;;5036221;28;20276;-70
2021/11/21 03:34:18;;;;;;;23.20;16.23;;;8.80;99.90;;;;;;5033623;28;20441;-70
2021/11/21 03:36:44;;;;;;;25.23;17.13;;;8.80;99.90;;;;;;5034853;28;20170;-70
2021/11/21 03:39:09;;;;;;;29.03;16.93;;;8.80;99.90;;;;;;5034743;28;20175;-70
2021/11/21 03:41:36;;;;;;;25.50;17.23;;;8.90;99.90;;;;;;5035702;28;20232;-69
2021/11/21 03:44:03;;;;;;;27.27;17.10;;;8.90;99.90;;;;;;5058337;22;20228;-71
2021/11/21 03:46:29;;;;;;;26.90;16.47;;;8.90;99.90;;;;;;5031653;28;20944;-70
2021/11/21 03:48:54;;;;;;;28.67;18.20;;;8.90;99.90;;;;;;5017237;28;20545;-70
2021/11/21 03:51:20;;;;;;;27.00;17.60;;;8.90;99.90;;;;;;5035155;28;20259;-70
2021/11/21 03:53:46;;;;;;;26.97;16.30;;;8.90;99.90;;;;;;5035031;28;20524;-70
2021/11/21 03:56:12;;;;;;;23.60;16.00;;;8.80;99.90;;;;;;5002981;28;20430;-71
2021/11/21 03:58:38;;;;;;;26.17;18.13;;;8.90;99.90;;;;;;5034745;28;20197;-71
2021/11/21 04:01:05;;;;;;;25.37;16.10;;;8.90;99.90;;;;;;5035048;28;20456;-72
2021/11/21 04:03:30;;;;;;;25.80;16.77;;;8.90;99.90;;;;;;5034934;28;20214;-70
2021/11/21 04:05:56;;;;;;;26.90;16.40;;;8.80;99.90;;;;;;5033179;28;20794;-71
2021/11/21 04:08:21;;;;;;;26.77;16.87;;;8.90;99.90;;;;;;5014960;28;20238;-71
2021/11/21 04:10:47;;;;;;;28.53;18.30;;;8.90;99.90;;;;;;5014930;28;20238;-72
2021/11/21 04:13:13;;;;;;;25.47;16.33;;;8.90;99.90;;;;;;5014933;28;20236;-71
2021/11/21 04:15:39;;;;;;;23.70;15.60;;;8.80;99.90;;;;;;5014839;28;20473;-70
2021/11/21 04:18:04;;;;;;;24.57;16.60;;;8.80;99.90;;;;;;5016253;28;20479;-71
2021/11/21 04:20:30;;;;;;;24.17;15.40;;;8.80;99.90;;;;;;5015274;28;20267;-71
2021/11/21 04:22:56;;;;;;;24.53;14.93;;;8.80;99.90;;;;;;5015051;28;20644;-71
2021/11/21 04:25:22;;;;;;;25.47;16.50;;;8.90;99.90;;;;;;5014569;28;20434;-70
2021/11/21 04:27:48;;;;;;;25.73;16.00;;;8.80;99.90;;;;;;5015679;28;20768;-71
2021/11/21 04:30:15;;;;;;;22.03;14.50;;;8.90;99.90;;;;;;5014847;28;20415;-71
2021/11/21 04:32:43;;;;;;;25.40;16.07;;;8.70;99.90;;;;;;5016205;28;20410;-77
2021/11/21 04:35:12;;;;;;;25.30;15.77;;;8.80;99.90;;;;;;5027653;28;20454;-79
2021/11/21 04:37:38;;;;;;;28.40;17.17;;;8.80;99.90;;;;;;5027307;28;20407;-70
2021/11/21 04:40:05;;;;;;;25.97;16.10;;;8.80;99.90;;;;;;5026613;28;20959;-71
2021/11/21 04:42:31;;;;;;;24.13;15.77;;;8.80;99.90;;;;;;5038142;28;20188;-71
2021/11/21 04:44:57;;;;;;;28.27;18.23;;;8.80;99.90;;;;;;5037950;28;20853;-71
2021/11/21 04:47:23;;;;;;;29.00;17.57;;;8.80;99.90;;;;;;5034225;28;20177;-71
2021/11/21 04:49:48;;;;;;;30.00;17.70;;;8.80;99.90;;;;;;5034550;28;20609;-71
2021/11/21 04:52:14;;;;;;;28.87;16.80;;;8.80;99.90;;;;;;5031909;28;20251;-70
2021/11/21 04:54:40;;;;;;;27.33;16.20;;;8.80;99.90;;;;;;5034047;28;20234;-71
2021/11/21 04:57:07;;;;;;;23.70;16.53;;;8.80;99.90;;;;;;5033018;28;20263;-71
2021/11/21 04:59:33;;;;;;;24.70;14.90;;;8.80;99.90;;;;;;5034179;28;20184;-71
2021/11/21 05:01:58;;;;;;;22.70;13.93;;;8.80;99.90;;;;;;5032136;28;20417;-69
2021/11/21 05:04:24;;;;;;;19.47;12.73;;;8.90;99.90;;;;;;5033272;28;20239;-69
2021/11/21 05:06:50;;;;;;;18.53;12.17;;;8.90;99.90;;;;;;5033337;28;20174;-71
2021/11/21 05:09:16;;;;;;;16.70;11.40;;;8.90;99.90;;;;;;5033823;28;20412;-71
2021/11/21 05:11:42;;;;;;;18.07;11.17;;;8.90;99.90;;;;;;5033600;28;20218;-72
2021/11/21 05:14:07;;;;;;;18.63;12.00;;;8.90;99.90;;;;;;5032304;28;20179;-70
2021/11/21 05:16:34;;;;;;;15.80;10.90;;;8.70;99.90;;;;;;5029563;28;20558;-71
2021/11/21 05:19:00;;;;;;;15.77;10.90;;;8.80;99.90;;;;;;5033932;28;20181;-70
2021/11/21 05:21:26;;;;;;;17.20;10.70;;;8.80;99.90;;;;;;5033830;28;20436;-70
2021/11/21 05:23:52;;;;;;;16.17;10.73;;;8.80;99.90;;;;;;5027819;28;20491;-69
2021/11/21 05:26:18;;;;;;;17.10;12.00;;;8.90;99.90;;;;;;5014012;28;20431;-70
2021/11/21 05:28:43;;;;;;;17.30;12.50;;;9.00;99.90;;;;;;5013925;28;20176;-71
2021/11/21 05:31:09;;;;;;;15.00;10.00;;;8.90;99.90;;;;;;5016305;28;20186;-70
2021/11/21 05:33:34;;;;;;;17.07;10.70;;;8.90;99.90;;;;;;5033776;28;20169;-71
2021/11/21 05:36:00;;;;;;;17.53;11.03;;;8.80;99.90;;;;;;5033401;28;20230;-71
2021/11/21 05:38:26;;;;;;;18.77;12.23;;;8.90;99.90;;;;;;5033621;28;20185;-70
2021/11/21 05:40:51;;;;;;;17.40;11.07;;;8.90;99.90;;;;;;5033492;28;20178;-70
2021/11/21 05:43:17;;;;;;;19.50;13.07;;;8.90;99.90;;;;;;5031809;28;20207;-71
2021/11/21 05:45:43;;;;;;;20.97;13.57;;;8.90;99.90;;;;;;5032791;28;20625;-70
2021/11/21 05:48:10;;;;;;;17.60;12.03;;;8.80;99.90;;;;;;5033478;28;20415;-71
2021/11/21 05:50:35;;;;;;;21.97;13.40;;;8.80;99.90;;;;;;5033445;28;20216;-70
2021/11/21 05:53:01;;;;;;;22.70;14.77;;;8.80;99.90;;;;;;5031619;28;20452;-71
2021/11/21 05:55:26;;;;;;;23.80;15.50;;;8.80;99.90;;;;;;5033710;28;20281;-70
2021/11/21 05:57:52;;;;;;;24.80;15.80;;;8.80;99.90;;;;;;5032840;28;20171;-70
2021/11/21 06:00:22;;;;;;;23.77;14.47;;;8.80;99.90;;;;;;5033024;28;20201;-70
2021/11/21 06:02:48;;;;;;;26.80;17.37;;;8.80;99.90;;;;;;5033544;28;20640;-70
2021/11/21 06:05:15;;;;;;;24.47;15.20;;;8.70;99.90;;;;;;5037138;28;20464;-70
2021/11/21 06:07:40;;;;;;;26.10;15.67;;;8.80;99.90;;;;;;5036994;28;20917;-70
2021/11/21 06:10:07;;;;;;;23.27;15.20;;;8.80;99.90;;;;;;5037415;28;20455;-72
2021/11/21 06:12:33;;;;;;;25.80;16.13;;;8.80;99.90;;;;;;5037715;28;20614;-71
2021/11/21 06:14:58;;;;;;;23.63;16.83;;;8.80;99.90;;;;;;5035741;28;20529;-71
2021/11/21 06:17:24;;;;;;;26.03;16.13;;;8.80;99.90;;;;;;5036725;28;20179;-70
2021/11/21 06:19:50;;;;;;;27.57;17.47;;;8.90;99.90;;;;;;5037856;28;20175;-70
2021/11/21 06:22:17;;;;;;;26.07;16.50;;;8.80;99.90;;;;;;5037203;28;20414;-71
2021/11/21 06:24:44;;;;;;;28.77;17.53;;;8.80;99.90;;;;;;5035413;28;20276;-70
2021/11/21 06:27:10;;;;;;;27.23;16.93;;;8.70;99.90;;;;;;5036234;28;20864;-71
2021/11/21 06:29:35;;;;;;;27.60;16.63;;;8.70;99.90;;;;;;5037142;28;20429;-71
2021/11/21 06:32:01;;;;;;;32.47;16.93;;;8.70;99.90;;;;;;5037298;28;20460;-70
2021/11/21 06:34:26;;;;;;;29.87;18.23;;;8.70;99.90;;;;;;5035860;28;21088;-71
2021/11/21 06:36:52;;;;;;;25.37;15.70;;;8.70;99.90;;;;;;5035939;28;20178;-70
2021/11/21 06:39:18;;;;;;;27.40;16.70;;;8.60;99.90;;;;;;5019243;28;20187;-70
2021/11/21 06:41:43;;;;;;;29.50;16.27;;;8.50;99.90;;;;;;5028396;28;20214;-70
2021/11/21 06:44:09;;;;;;;29.80;17.40;;;8.60;99.90;;;;;;5016772;28;20193;-72
2021/11/21 06:46:36;;;;;;;26.27;16.33;;;8.60;99.90;;;;;;5017581;28;20176;-71
2021/11/21 06:49:03;;;;;;;23.70;15.80;;;8.50;99.90;;;;;;5035459;28;20178;-72
2021/11/21 06:51:29;;;;;;;24.73;15.80;;;8.60;99.90;;;;;;5018507;28;20423;-71
2021/11/21 06:53:55;;;;;;;26.03;16.57;;;8.60;99.90;;;;;;5019080;28;20755;-69
2021/11/21 06:56:21;;;;;;;26.43;16.00;;;8.60;99.90;;;;;;5020509;28;20460;-70
2021/11/21 06:58:47;;;;;;;30.27;17.00;;;8.70;99.90;;;;;;5019834;28;20519;-70
2021/11/21 07:01:13;;;;;;;24.70;16.33;;;8.70;99.90;;;;;;5024254;28;20167;-69
2021/11/21 07:03:39;;;;;;;27.20;16.37;;;8.80;99.90;;;;;;5026366;28;20460;-70
2021/11/21 07:06:05;;;;;;;29.40;19.10;;;8.70;99.90;;;;;;5024663;28;20218;-69
2021/11/21 07:08:30;;;;;;;25.00;15.70;;;8.70;99.90;;;;;;5026089;28;20233;-69
2021/11/21 07:10:56;;;;;;;23.20;15.50;;;8.70;99.90;;;;;;5026945;28;20235;-69
2021/11/21 07:13:21;;;;;;;26.07;16.07;;;8.60;99.90;;;;;;5032512;28;20655;-70
2021/11/21 07:15:48;;;;;;;26.83;17.77;;;8.70;99.90;;;;;;5041475;28;20199;-70
2021/11/21 07:18:14;;;;;;;24.47;16.13;;;8.80;99.90;;;;;;5042324;28;20245;-71
2021/11/21 07:20:39;;;;;;;26.17;16.30;;;8.80;99.90;;;;;;5041964;28;20779;-70
2021/11/21 07:23:05;;;;;;;28.37;17.17;;;8.80;99.90;;;;;;5025454;28;20171;-69
2021/11/21 07:25:31;;;;;;;29.40;17.40;;;8.80;99.90;;;;;;5017811;28;20238;-69
2021/11/21 07:27:58;;;;;;;25.33;16.53;;;8.80;99.90;;;;;;5017248;28;20568;-69
2021/11/21 07:30:24;;;;;;;25.20;16.47;;;8.70;99.90;;;;;;5016936;28;20439;-70
2021/11/21 07:32:51;;;;;;;27.60;18.00;;;8.70;99.90;;;;;;5016707;28;20418;-70
2021/11/21 07:35:19;;;;;;;29.00;17.83;;;8.70;99.90;;;;;;5017432;28;20590;-70
2021/11/21 07:37:45;;;;;;;28.90;17.33;;;8.70;99.90;;;;;;5015667;28;20497;-70
2021/11/21 07:40:12;;;;;;;25.83;15.60;;;8.80;99.90;;;;;;5015877;28;20409;-70
2021/11/21 07:42:39;;;;;;;28.83;16.17;;;8.70;99.90;;;;;;5015721;28;20444;-69
2021/11/21 07:45:07;;;;;;;25.47;16.10;;;8.60;99.90;;;;;;5016787;28;20469;-70
2021/11/21 07:47:32;;;;;;;23.67;15.00;;;8.60;99.90;;;;;;5016026;28;20906;-70
2021/11/21 07:49:58;;;;;;;19.57;12.90;;;8.70;99.90;;;;;;5015637;28;20420;-70
2021/11/21 07:52:25;;;;;;;19.37;12.00;;;8.70;99.90;;;;;;5015663;28;20248;-70
2021/11/21 07:54:51;;;;;;;19.43;11.73;;;8.80;99.90;;;;;;5015452;28;20191;-70
2021/11/21 07:57:17;;;;;;;19.10;12.87;;;8.70;99.90;;;;;;5015785;28;20422;-68
2021/11/21 07:59:42;;;;;;;18.47;12.83;;;8.70;99.90;;;;;;5035185;28;20420;-69
2021/11/21 08:02:08;;;;;;;16.20;10.20;;;8.70;99.90;;;;;;5035127;28;20171;-69
2021/11/21 08:04:34;;;;;;;14.33;9.83;;;8.80;99.90;;;;;;5034945;28;20207;-70
2021/11/21 08:06:59;;;;;;;13.87;10.03;;;8.80;99.90;;;;;;5023570;28;20182;-70
2021/11/21 08:09:25;;;;;;;10.87;8.50;;;8.90;99.90;;;;;;5015177;28;20204;-70
2021/11/21 08:11:50;;;;;;;11.47;8.57;;;8.90;99.90;;;;;;5015198;28;20179;-69
2021/11/21 08:14:16;;;;;;;12.45;9.75;;;8.80;99.90;;;;;;5033360;28;20555;-72
2021/11/21 08:16:42;;;;;;;11.13;7.73;;;8.90;99.90;;;;;;5031489;28;20193;-71
2021/11/21 08:19:10;;;;;;;10.57;7.07;;;9.00;99.90;;;;;;5015772;28;20267;-72
2021/11/21 08:21:35;;;;;;;10.50;7.17;;;9.00;99.90;;;;;;5034205;28;20172;-69
2021/11/21 08:24:01;;;;;;;9.20;7.00;;;9.00;99.90;;;;;;5033532;28;20514;-69
2021/11/21 08:26:27;;;;;;;8.70;6.57;;;9.10;99.90;;;;;;5032169;28;20637;-71
2021/11/21 08:28:52;;;;;;;8.53;6.73;;;9.10;99.90;;;;;;5031912;28;20178;-70
2021/11/21 08:31:18;;;;;;;10.23;6.90;;;9.00;99.90;;;;;;5032954;28;20960;-70
2021/11/21 08:33:44;;;;;;;9.63;7.00;;;9.00;99.90;;;;;;5034542;28;20172;-70
2021/11/21 08:36:10;;;;;;;8.67;5.53;;;9.00;99.90;;;;;;5022091;28;20214;-69
2021/11/21 08:38:35;;;;;;;8.97;6.73;;;8.90;99.90;;;;;;5046021;28;20253;-70
2021/11/21 08:41:02;;;;;;;8.60;6.10;;;8.90;99.90;;;;;;5054368;28;20735;-70
2021/11/21 08:43:28;;;;;;;9.20;5.63;;;9.00;99.90;;;;;;5054666;28;20227;-69
2021/11/21 08:45:54;;;;;;;9.20;6.70;;;9.00;99.90;;;;;;5053748;28;20534;-71
2021/11/21 08:48:19;;;;;;;8.47;5.80;;;9.00;99.90;;;;;;5055442;28;20176;-71
2021/11/21 08:50:45;;;;;;;8.00;5.77;;;8.90;99.90;;;;;;5054953;28;20426;-71
2021/11/21 08:53:11;;;;;;;9.00;5.87;;;9.00;99.90;;;;;;5056163;28;20338;-70
2021/11/21 08:55:37;;;;;;;8.73;6.03;;;9.10;99.90;;;;;;5055827;28;20453;-73
2021/11/21 08:58:04;;;;;;;7.80;6.07;;;9.20;99.90;;;;;;5030127;28;20181;-70
2021/11/21 09:00:29;;;;;;;9.00;6.97;;;9.20;99.90;;;;;;5022927;28;20181;-71
2021/11/21 09:02:55;;;;;;;9.23;7.90;;;9.30;99.90;;;;;;5033836;28;20844;-69
2021/11/21 09:05:23;;;;;;;9.77;7.40;;;9.20;99.90;;;;;;5034742;28;20216;-69
2021/11/21 09:07:49;;;;;;;11.40;7.70;;;9.20;99.90;;;;;;5033490;28;20523;-70
2021/11/21 09:10:18;;;;;;;10.63;8.57;;;9.20;99.90;;;;;;5033430;28;20410;-70
2021/11/21 09:12:45;;;;;;;9.83;8.13;;;9.30;99.90;;;;;;5035491;28;20582;-70
2021/11/21 09:15:14;;;;;;;10.80;7.87;;;9.30;99.90;;;;;;5035358;28;20479;-71
2021/11/21 09:17:47;;;;;;;11.07;8.27;;;9.40;99.90;;;;;;5034921;28;20413;-71
2021/11/21 09:20:13;;;;;;;11.80;9.10;;;9.50;99.90;;;;;;5025666;28;20694;-69
2021/11/21 09:22:40;;;;;;;10.20;7.83;;;9.50;99.90;;;;;;5037020;28;20912;-70
2021/11/21 09:25:07;;;;;;;9.67;7.00;;;9.50;99.90;;;;;;5053838;28;20481;-70
2021/11/21 09:27:33;;;;;;;14.33;9.37;;;9.50;99.90;;;;;;5054222;28;20462;-69
2021/11/21 09:29:59;;;;;;;11.77;8.10;;;9.60;99.90;;;;;;5053551;28;20535;-70
2021/11/21 09:32:25;;;;;;;11.67;8.23;;;9.60;99.90;;;;;;5043923;28;20479;-70
2021/11/21 09:34:51;;;;;;;11.77;7.87;;;9.60;99.90;;;;;;5033572;28;20206;-71
2021/11/21 09:37:17;;;;;;;12.57;9.17;;;9.50;99.90;;;;;;5034050;28;20187;-71
2021/11/21 09:39:45;;;;;;;11.20;7.97;;;9.50;99.90;;;;;;5015751;28;20495;-69
2021/11/21 09:42:11;;;;;;;10.80;8.07;;;9.60;99.90;;;;;;5015118;28;20474;-71
2021/11/21 09:44:36;;;;;;;12.60;9.40;;;9.50;99.90;;;;;;5012289;28;20471;-73
2021/11/21 09:47:02;;;;;;;12.17;9.50;;;9.60;99.90;;;;;;5011168;28;20542;-69
2021/11/21 09:49:28;;;;;;;11.50;8.90;;;9.70;99.90;;;;;;5011625;28;20206;-70
2021/11/21 09:51:55;;;;;;;10.97;9.13;;;9.70;99.90;;;;;;5024356;28;20467;-70
2021/11/21 09:54:27;;;;;;;10.23;8.80;;;9.70;99.90;;;;;;5031300;28;20846;-69
2021/11/21 09:56:53;;;;;;;12.07;9.37;;;9.70;99.90;;;;;;5030611;28;20461;-72
2021/11/21 09:59:58;;;;;;;12.70;9.43;;;9.80;99.90;;;;;;5032121;28;21006;-71
2021/11/21 10:02:31;;;;;;;11.50;8.67;;;9.90;99.90;;;;;;5020728;28;20722;-69
2021/11/21 10:05:04;;;;;;;13.93;10.00;;;10.00;99.90;;;;;;5013684;28;20921;-68
2021/11/21 10:07:34;;;;;;;12.17;9.37;;;10.10;99.90;;;;;;5029166;28;20461;-70
2021/11/21 10:10:06;;;;;;;13.60;10.40;;;10.10;99.90;;;;;;5031238;28;20492;-70
2021/11/21 10:12:37;;;;;;;13.37;10.33;;;10.10;99.90;;;;;;5017425;28;20460;-69
2021/11/21 10:15:15;;;;;;;16.20;11.50;;;9.90;99.90;;;;;;5011747;28;20429;-71
2021/11/21 10:17:46;;;;;;;16.90;11.50;;;9.70;99.90;;;;;;5012858;28;20532;-69
2021/11/21 10:20:19;;;;;;;15.90;11.17;;;9.70;99.90;;;;;;5029782;28;20935;-70
2021/11/21 10:23:06;;;;;;;16.77;12.17;;;9.80;99.90;;;;;;5011228;28;20629;-69
2021/11/21 10:25:31;;;;;;;15.77;11.77;;;9.80;99.90;;;;;;5031148;28;20441;-68
2021/11/21 10:28:17;;;;;;;17.20;12.17;;;9.80;99.90;;;;;;5030728;28;20455;-70
2021/11/21 10:31:07;;;;;;;17.87;12.70;;;9.60;99.90;;;;;;5016432;28;20197;-69
2021/11/21 10:33:39;;;;;;;19.03;13.30;;;9.60;99.90;;;;;;5016640;28;20439;-70
2021/11/21 10:36:16;;;;;;;19.10;13.53;;;9.70;99.90;;;;;;5029647;28;20518;-69
2021/11/21 10:38:45;;;;;;;18.83;13.07;;;9.70;99.90;;;;;;5011566;28;20457;-69
2021/11/21 10:41:24;;;;;;;16.60;12.20;;;9.80;99.90;;;;;;5051647;28;20517;-72
2021/11/21 10:44:02;;;;;;;20.97;13.20;;;9.70;99.90;;;;;;5051634;28;20578;-69
2021/11/21 10:46:28;;;;;;;16.10;12.60;;;9.70;99.90;;;;;;5050001;28;20447;-69
2021/11/21 10:48:55;;;;;;;16.50;12.40;;;9.70;99.90;;;;;;5050142;28;20423;-68
2021/11/21 10:51:25;;;;;;;17.67;12.37;;;9.70;99.90;;;;;;5054445;28;20208;-70
2021/11/21 10:53:51;;;;;;;17.80;12.97;;;9.70;99.90;;;;;;5054962;28;20434;-71
2021/11/21 10:56:17;;;;;;;20.10;14.37;;;9.50;99.90;;;;;;5054869;28;20439;-70
2021/11/21 10:58:50;;;;;;;22.00;13.87;;;9.50;99.90;;;;;;5054419;28;20522;-70
2021/11/21 11:01:24;;;;;;;20.40;13.30;;;9.70;99.90;;;;;;5055453;28;20486;-70
2021/11/21 11:04:11;;;;;;;20.80;15.50;;;9.70;99.90;;;;;;5019639;28;20899;-69
2021/11/21 11:06:38;;;;;;;18.63;13.17;;;9.70;99.90;;;;;;5031383;28;20452;-68
2021/11/21 11:09:36;;;;;;;21.30;13.33;;;9.80;99.90;;;;;;5042389;22;20573;-70
2021/11/21 11:12:02;;;;;;;18.70;14.00;;;9.80;99.90;;;;;;4946302;29;20462;-69
2021/11/21 11:14:27;;;;;;;20.53;13.37;;;9.80;99.90;;;;;;4936726;29;20441;-68
2021/11/21 11:16:55;;;;;;;19.17;13.57;;;9.80;99.90;;;;;;4950533;29;20429;-69
2021/11/21 11:19:24;;;;;;;19.10;12.97;;;9.80;99.90;;;;;;4951751;29;20582;-69
2021/11/21 11:21:50;;;;;;;24.53;12.87;;;9.80;99.90;;;;;;4952015;28;20428;-68
2021/11/21 11:24:22;;;;;;;20.23;13.23;;;9.80;99.90;;;;;;4952440;28;21016;-69
2021/11/21 11:27:06;;;;;;;21.70;12.73;;;9.60;99.90;;;;;;4952736;29;20420;-69
2021/11/21 11:29:38;;;;;;;20.03;14.07;;;9.60;99.90;;;;;;4951950;28;20502;-70
2021/11/21 11:32:19;;;;;;;18.37;11.97;;;9.60;99.90;;;;;;4953098;28;20452;-69
2021/11/21 11:34:44;;;;;;;20.17;13.37;;;9.60;99.90;;;;;;4924811;29;20432;-70
2021/11/21 11:37:14;;;;;;;14.00;10.20;;;9.60;99.90;;;;;;4952304;28;20424;-68
2021/11/21 11:39:42;;;;;;;13.50;11.23;;;9.60;99.90;;;;;;4953357;29;20360;-69
2021/11/21 11:42:34;;;;;;;15.83;11.83;;;9.60;99.90;;;;;;4951514;28;20435;-71
2021/11/21 11:45:01;;;;;;;12.80;9.57;;;9.60;99.90;;;;;;4946145;29;20470;-71
2021/11/21 11:47:28;;;;;;;12.57;7.93;;;9.70;99.90;;;;;;4977355;28;20423;-71
2021/11/21 11:49:54;;;;;;;13.00;7.83;;;9.70;99.90;;;;;;5010568;28;20508;-70
2021/11/21 11:52:58;;;;;;;10.43;6.83;;;9.80;99.90;;;;;;4995778;28;20414;-70
2021/11/21 11:55:27;;;;;;;9.73;6.60;;;9.80;99.90;;;;;;5011427;28;20425;-70
2021/11/21 11:57:54;;;;;;;10.50;7.00;;;10.00;99.90;;;;;;4978085;28;20419;-69
2021/11/21 12:00:32;;;;;;;7.73;5.83;;;10.00;99.90;;;;;;4994945;28;20481;-69
2021/11/21 12:02:59;;;;;;;10.40;6.53;;;10.00;99.90;;;;;;4995058;28;20816;-69
2021/11/21 12:05:34;;;;;;;9.60;5.40;;;10.00;99.90;;;;;;4977343;28;20620;-69
2021/11/21 12:08:17;;;;;;;5.90;4.63;;;10.00;99.90;;;;;;4996920;28;20418;-69
2021/11/21 12:10:48;;;;;;;5.90;5.13;;;10.10;99.90;;;;;;4995829;28;20422;-69
2021/11/21 12:13:33;;;;;;;5.20;4.20;;;10.10;99.90;;;;;;4995136;28;20438;-69
2021/11/21 12:16:13;;;;;;;8.57;4.70;;;10.10;99.90;;;;;;4995554;28;20430;-70
2021/11/21 12:19:00;;;;;;;7.43;5.00;;;10.10;99.90;;;;;;5012613;28;20987;-70
2021/11/21 12:21:45;;;;;;;6.77;4.30;;;10.10;99.90;;;;;;4997085;28;20449;-69
2021/11/21 12:24:25;;;;;;;8.90;5.47;;;10.10;99.90;;;;;;5016626;28;20449;-69
2021/11/21 12:26:52;;;;;;;7.63;4.10;;;10.20;99.90;;;;;;5014578;28;20745;-69
2021/11/21 12:29:25;;;;;;;7.63;5.20;;;10.20;99.90;;;;;;5012542;28;20437;-68
2021/11/21 12:31:53;;;;;;;7.97;4.13;;;10.30;99.90;;;;;;5014789;28;20383;-69
2021/11/21 12:34:42;;;;;;;7.00;4.77;;;10.30;99.90;;;;;;5015871;28;20462;-69
2021/11/21 12:37:19;;;;;;;7.33;4.37;;;10.40;99.90;;;;;;5015717;28;20399;-69
2021/11/21 12:39:47;;;;;;;6.23;5.10;;;10.40;99.90;;;;;;4994900;28;20588;-69
2021/11/21 12:42:16;;;;;;;8.70;5.67;;;10.50;99.90;;;;;;4994407;28;20466;-69
2021/11/21 12:44:42;;;;;;;7.40;5.27;;;10.50;99.90;;;;;;5014032;28;20469;-69